sensor_id;sensor_type;location;lat;lon;timestamp;pressure;altitude;pressure_sealevel;temperature;humidity
13690;BME280;6917;52.194;9.894;2022-09-09T00:02:19;99767.50;;;13.90;100.00
13690;BME280;6917;52.194;9.894;2022-09-09T00:15:57;99769.06;;;13.76;100.00
13690;BME280;6917;52.194;9.894;2022-09-09T00:23:31;99756.16;;;13.64;100.00
13690;BME280;6917;52.194;9.894;2022-09-09T00:26:09;99757.66;;;13.61;100.00
13690;BME280;6917;52.194;9.894;2022-09-09T00:28:52;99753.56;;;13.55;100.00
13690;BME280;6917;52.194;9.894;2022-09-09T00:31:26;99763.63;;;13.51;100.00
13690;BME280;6917;52.194;9.894;2022-09-09T00:33:53;99771.53;;;13.53;100.00
13690;BME280;6917;52.194;9.894;2022-09-09T00:36:22;99753.72;;;13.47;100.00
13690;BME280;6917;52.194;9.894;2022-09-09T00:38:55;99752.78;;;13.43;100.00
13690;BME280;6917;52.194;9.894;2022-09-09T00:44:43;99750.06;;;13.30;100.00
13690;BME280;6917;52.194;9.894;2022-09-09T00:49:23;99743.31;;;13.40;100.00
13690;BME280;6917;52.194;9.894;2022-09-09T00:55:08;99748.78;;;13.40;100.00
13690;BME280;6917;52.194;9.894;2022-09-09T00:57:40;99756.91;;;13.49;100.00
13690;BME280;6917;52.194;9.894;2022-09-09T01:00:29;99751.53;;;13.40;100.00
13690;BME280;6917;52.194;9.894;2022-09-09T01:05:38;99744.00;;;13.37;100.00
13690;BME280;6917;52.194;9.894;2022-09-09T01:08:19;99742.09;;;13.25;100.00
13690;BME280;6917;52.194;9.894;2022-09-09T01:10:51;99752.16;;;13.33;100.00
13690;BME280;6917;52.194;9.894;2022-09-09T01:13:25;99749.28;;;13.30;100.00
13690;BME280;6917;52.194;9.894;2022-09-09T01:15:52;99752.59;;;13.35;100.00
13690;BME280;6917;52.194;9.894;2022-09-09T01:18:23;99753.59;;;13.43;100.00
13690;BME280;6917;52.194;9.894;2022-09-09T01:26:48;99748.16;;;13.31;100.00
13690;BME280;6917;52.194;9.894;2022-09-09T01:29:17;99741.53;;;13.20;100.00
13690;BME280;6917;52.194;9.894;2022-09-09T01:31:56;99742.22;;;13.17;100.00
13690;BME280;6917;52.194;9.894;2022-09-09T01:34:24;99744.72;;;13.09;100.00
13690;BME280;6917;52.194;9.894;2022-09-09T01:39:20;99733.41;;;12.99;100.00
13690;BME280;6917;52.194;9.894;2022-09-09T01:41:46;99732.41;;;12.91;100.00
13690;BME280;6917;52.194;9.894;2022-09-09T01:44:11;99735.69;;;12.97;100.00
13690;BME280;6917;52.194;9.894;2022-09-09T01:46:37;99735.59;;;12.93;100.00
13690;BME280;6917;52.194;9.894;2022-09-09T01:49:05;99732.06;;;12.93;100.00
13690;BME280;6917;52.194;9.894;2022-09-09T01:51:32;99738.91;;;12.99;100.00
13690;BME280;6917;52.194;9.894;2022-09-09T01:53:57;99741.28;;;13.00;100.00
13690;BME280;6917;52.194;9.894;2022-09-09T02:02:09;99749.50;;;13.13;100.00
13690;BME280;6917;52.194;9.894;2022-09-09T02:04:39;99746.53;;;13.18;100.00
13690;BME280;6917;52.194;9.894;2022-09-09T02:07:28;99748.50;;;13.17;100.00
13690;BME280;6917;52.194;9.894;2022-09-09T02:10:28;99744.28;;;13.20;100.00
13690;BME280;6917;52.194;9.894;2022-09-09T02:13:03;99750.13;;;13.18;100.00
13690;BME280;6917;52.194;9.894;2022-09-09T02:15:38;99746.78;;;13.00;100.00
13690;BME280;6917;52.194;9.894;2022-09-09T02:18:08;99743.47;;;12.95;100.00
13690;BME280;6917;52.194;9.894;2022-09-09T02:20:38;99748.16;;;12.94;100.00
13690;BME280;6917;52.194;9.894;2022-09-09T02:23:05;99747.56;;;13.01;100.00
13690;BME280;6917;52.194;9.894;2022-09-09T02:25:33;99747.47;;;13.09;100.00
13690;BME280;6917;52.194;9.894;2022-09-09T02:27:59;99746.06;;;13.16;100.00
13690;BME280;6917;52.194;9.894;2022-09-09T02:30:28;99740.81;;;13.10;100.00
13690;BME280;6917;52.194;9.894;2022-09-09T02:32:58;99736.41;;;13.18;100.00
13690;BME280;6917;52.194;9.894;2022-09-09T02:35:25;99726.75;;;13.12;100.00
13690;BME280;6917;52.194;9.894;2022-09-09T02:37:55;99735.56;;;13.18;100.00
13690;BME280;6917;52.194;9.894;2022-09-09T02:40:22;99729.16;;;13.26;100.00
13690;BME280;6917;52.194;9.894;2022-09-09T02:42:48;99732.13;;;13.33;100.00
13690;BME280;6917;52.194;9.894;2022-09-09T02:45:18;99733.50;;;13.27;100.00
13690;BME280;6917;52.194;9.894;2022-09-09T02:48:02;99725.16;;;13.35;100.00
13690;BME280;6917;52.194;9.894;2022-09-09T02:50:35;99726.59;;;13.45;100.00
13690;BME280;6917;52.194;9.894;2022-09-09T02:55:48;99738.94;;;13.51;100.00
13690;BME280;6917;52.194;9.894;2022-09-09T02:58:17;99736.72;;;13.57;100.00
13690;BME280;6917;52.194;9.894;2022-09-09T03:00:46;99740.63;;;13.56;100.00
13690;BME280;6917;52.194;9.894;2022-09-09T03:03:11;99735.22;;;13.59;100.00
13690;BME280;6917;52.194;9.894;2022-09-09T03:05:37;99742.09;;;13.65;100.00
13690;BME280;6917;52.194;9.894;2022-09-09T03:08:04;99734.50;;;13.75;100.00
13690;BME280;6917;52.194;9.894;2022-09-09T03:10:31;99742.03;;;13.78;100.00
13690;BME280;6917;52.194;9.894;2022-09-09T03:12:56;99745.22;;;13.80;100.00
13690;BME280;6917;52.194;9.894;2022-09-09T03:15:22;99743.03;;;13.85;100.00
13690;BME280;6917;52.194;9.894;2022-09-09T03:17:47;99749.75;;;13.88;100.00
13690;BME280;6917;52.194;9.894;2022-09-09T03:20:12;99757.84;;;13.96;100.00
13690;BME280;6917;52.194;9.894;2022-09-09T03:22:38;99759.09;;;13.99;100.00
13690;BME280;6917;52.194;9.894;2022-09-09T03:25:04;99759.53;;;14.01;100.00
13690;BME280;6917;52.194;9.894;2022-09-09T03:27:29;99753.81;;;14.06;100.00
13690;BME280;6917;52.194;9.894;2022-09-09T03:29:55;99748.75;;;14.08;100.00
13690;BME280;6917;52.194;9.894;2022-09-09T03:32:21;99748.84;;;14.12;100.00
13690;BME280;6917;52.194;9.894;2022-09-09T03:34:47;99748.50;;;14.13;100.00
13690;BME280;6917;52.194;9.894;2022-09-09T03:37:15;99749.63;;;14.12;100.00
13690;BME280;6917;52.194;9.894;2022-09-09T03:39:40;99752.38;;;14.12;100.00
13690;BME280;6917;52.194;9.894;2022-09-09T03:42:06;99744.16;;;14.12;100.00
13690;BME280;6917;52.194;9.894;2022-09-09T03:44:31;99753.53;;;14.11;100.00
13690;BME280;6917;52.194;9.894;2022-09-09T03:46:57;99748.41;;;14.10;100.00
13690;BME280;6917;52.194;9.894;2022-09-09T03:49:25;99746.00;;;14.08;100.00
13690;BME280;6917;52.194;9.894;2022-09-09T03:51:52;99743.63;;;14.07;100.00
13690;BME280;6917;52.194;9.894;2022-09-09T03:54:17;99741.22;;;14.05;100.00
13690;BME280;6917;52.194;9.894;2022-09-09T03:56:42;99733.78;;;14.06;100.00
13690;BME280;6917;52.194;9.894;2022-09-09T03:59:08;99741.75;;;14.11;100.00
13690;BME280;6917;52.194;9.894;2022-09-09T04:01:34;99744.94;;;14.13;100.00
13690;BME280;6917;52.194;9.894;2022-09-09T04:03:59;99743.78;;;14.14;100.00
13690;BME280;6917;52.194;9.894;2022-09-09T04:06:25;99747.34;;;14.14;100.00
13690;BME280;6917;52.194;9.894;2022-09-09T04:08:50;99742.75;;;14.18;100.00
13690;BME280;6917;52.194;9.894;2022-09-09T04:11:17;99756.94;;;14.20;100.00
13690;BME280;6917;52.194;9.894;2022-09-09T04:13:42;99745.59;;;14.22;100.00
13690;BME280;6917;52.194;9.894;2022-09-09T04:16:10;99751.09;;;14.22;100.00
13690;BME280;6917;52.194;9.894;2022-09-09T04:18:36;99752.31;;;14.24;100.00
13690;BME280;6917;52.194;9.894;2022-09-09T04:21:02;99753.13;;;14.25;100.00
13690;BME280;6917;52.194;9.894;2022-09-09T04:23:29;99757.03;;;14.24;100.00
13690;BME280;6917;52.194;9.894;2022-09-09T04:25:55;99745.22;;;14.23;100.00
13690;BME280;6917;52.194;9.894;2022-09-09T04:28:23;99751.97;;;14.26;100.00
13690;BME280;6917;52.194;9.894;2022-09-09T04:30:49;99755.94;;;14.28;100.00
13690;BME280;6917;52.194;9.894;2022-09-09T04:33:14;99752.50;;;14.32;100.00
13690;BME280;6917;52.194;9.894;2022-09-09T04:35:48;99755.72;;;14.34;100.00
13690;BME280;6917;52.194;9.894;2022-09-09T04:38:14;99757.53;;;14.29;100.00
13690;BME280;6917;52.194;9.894;2022-09-09T04:40:43;99755.16;;;14.28;100.00
13690;BME280;6917;52.194;9.894;2022-09-09T04:43:09;99757.53;;;14.29;100.00
13690;BME280;6917;52.194;9.894;2022-09-09T04:45:34;99758.00;;;14.32;100.00
13690;BME280;6917;52.194;9.894;2022-09-09T04:48:00;99755.06;;;14.24;100.00
13690;BME280;6917;52.194;9.894;2022-09-09T04:50:27;99760.72;;;14.32;100.00
13690;BME280;6917;52.194;9.894;2022-09-09T04:52:53;99757.53;;;14.29;100.00
13690;BME280;6917;52.194;9.894;2022-09-09T04:55:19;99758.34;;;14.30;100.00
13690;BME280;6917;52.194;9.894;2022-09-09T04:57:44;99763.69;;;14.39;100.00
13690;BME280;6917;52.194;9.894;2022-09-09T05:00:10;99768.59;;;14.45;100.00
13690;BME280;6917;52.194;9.894;2022-09-09T05:02:39;99763.88;;;14.46;100.00
13690;BME280;6917;52.194;9.894;2022-09-09T05:05:05;99766.63;;;14.46;100.00
13690;BME280;6917;52.194;9.894;2022-09-09T05:07:31;99771.00;;;14.47;100.00
13690;BME280;6917;52.194;9.894;2022-09-09T05:09:56;99772.59;;;14.48;100.00
13690;BME280;6917;52.194;9.894;2022-09-09T05:12:22;99765.50;;;14.47;100.00
13690;BME280;6917;52.194;9.894;2022-09-09T05:14:49;99765.94;;;14.49;100.00
13690;BME280;6917;52.194;9.894;2022-09-09T05:17:15;99767.53;;;14.50;100.00
13690;BME280;6917;52.194;9.894;2022-09-09T05:19:41;99764.44;;;14.51;100.00
13690;BME280;6917;52.194;9.894;2022-09-09T05:22:06;99764.50;;;14.55;100.00
13690;BME280;6917;52.194;9.894;2022-09-09T05:24:32;99771.16;;;14.54;100.00
13690;BME280;6917;52.194;9.894;2022-09-09T05:26:58;99767.63;;;14.53;100.00
13690;BME280;6917;52.194;9.894;2022-09-09T05:29:26;99764.50;;;14.55;100.00
13690;BME280;6917;52.194;9.894;2022-09-09T05:31:52;99763.38;;;14.56;100.00
13690;BME280;6917;52.194;9.894;2022-09-09T05:34:17;99763.38;;;14.56;100.00
13690;BME280;6917;52.194;9.894;2022-09-09T05:36:42;99760.69;;;14.59;100.00
13690;BME280;6917;52.194;9.894;2022-09-09T05:39:08;99772.59;;;14.64;100.00
13690;BME280;6917;52.194;9.894;2022-09-09T05:41:33;99774.28;;;14.68;100.00
13690;BME280;6917;52.194;9.894;2022-09-09T05:44:00;99768.13;;;14.75;100.00
13690;BME280;6917;52.194;9.894;2022-09-09T05:46:26;99770.56;;;14.76;100.00
13690;BME280;6917;52.194;9.894;2022-09-09T05:48:52;99778.44;;;14.78;100.00
13690;BME280;6917;52.194;9.894;2022-09-09T05:51:24;99783.66;;;14.83;100.00
13690;BME280;6917;52.194;9.894;2022-09-09T05:53:50;99775.94;;;14.88;100.00
13690;BME280;6917;52.194;9.894;2022-09-09T05:56:21;99786.75;;;14.97;100.00
13690;BME280;6917;52.194;9.894;2022-09-09T05:58:48;99787.28;;;15.03;100.00
13690;BME280;6917;52.194;9.894;2022-09-09T06:01:19;99790.22;;;15.10;100.00
13690;BME280;6917;52.194;9.894;2022-09-09T06:03:46;99785.50;;;15.10;100.00
13690;BME280;6917;52.194;9.894;2022-09-09T06:06:14;99792.59;;;15.11;100.00
13690;BME280;6917;52.194;9.894;2022-09-09T06:08:42;99787.97;;;15.15;100.00
13690;BME280;6917;52.194;9.894;2022-09-09T06:13:45;99801.19;;;15.26;100.00
13690;BME280;6917;52.194;9.894;2022-09-09T06:16:12;99797.34;;;15.30;100.00
13690;BME280;6917;52.194;9.894;2022-09-09T06:18:39;99799.13;;;15.38;100.00
13690;BME280;6917;52.194;9.894;2022-09-09T06:21:14;99795.28;;;15.43;100.00
13690;BME280;6917;52.194;9.894;2022-09-09T06:23:40;99799.69;;;15.47;100.00
13690;BME280;6917;52.194;9.894;2022-09-09T06:28:40;99799.34;;;15.65;100.00
13690;BME280;6917;52.194;9.894;2022-09-09T06:31:10;99796.50;;;15.81;100.00
13690;BME280;6917;52.194;9.894;2022-09-09T06:33:37;99797.44;;;15.88;100.00
13690;BME280;6917;52.194;9.894;2022-09-09T06:36:04;99788.16;;;15.96;100.00
13690;BME280;6917;52.194;9.894;2022-09-09T06:38:30;99791.06;;;16.03;100.00
13690;BME280;6917;52.194;9.894;2022-09-09T06:40:58;99786.13;;;16.13;100.00
13690;BME280;6917;52.194;9.894;2022-09-09T06:43:25;99786.25;;;16.20;100.00
13690;BME280;6917;52.194;9.894;2022-09-09T06:46:09;99783.69;;;16.30;100.00
13690;BME280;6917;52.194;9.894;2022-09-09T06:48:35;99787.97;;;16.28;100.00
13690;BME280;6917;52.194;9.894;2022-09-09T06:51:10;99789.22;;;16.30;100.00
13690;BME280;6917;52.194;9.894;2022-09-09T06:53:40;99785.38;;;16.35;100.00
13690;BME280;6917;52.194;9.894;2022-09-09T06:56:22;99785.72;;;16.33;100.00
13690;BME280;6917;52.194;9.894;2022-09-09T06:58:49;99792.91;;;16.38;100.00
13690;BME280;6917;52.194;9.894;2022-09-09T07:01:25;99789.88;;;16.47;100.00
13690;BME280;6917;52.194;9.894;2022-09-09T07:03:54;99791.19;;;16.53;100.00
13690;BME280;6917;52.194;9.894;2022-09-09T07:06:24;99795.22;;;16.59;100.00
13690;BME280;6917;52.194;9.894;2022-09-09T07:08:51;99805.47;;;16.58;100.00
13690;BME280;6917;52.194;9.894;2022-09-09T07:11:18;99804.31;;;16.59;100.00
13690;BME280;6917;52.194;9.894;2022-09-09T07:13:44;99804.81;;;16.65;100.00
13690;BME280;6917;52.194;9.894;2022-09-09T07:16:12;99813.16;;;16.69;100.00
13690;BME280;6917;52.194;9.894;2022-09-09T07:18:39;99804.91;;;16.69;98.92
13690;BME280;6917;52.194;9.894;2022-09-09T07:21:04;99809.97;;;16.66;97.93
13690;BME280;6917;52.194;9.894;2022-09-09T07:23:30;99811.56;;;16.68;97.86
13690;BME280;6917;52.194;9.894;2022-09-09T07:25:56;99801.34;;;16.68;97.79
13690;BME280;6917;52.194;9.894;2022-09-09T07:28:22;99814.03;;;16.73;97.10
13690;BME280;6917;52.194;9.894;2022-09-09T07:30:56;99803.03;;;16.76;97.43
13690;BME280;6917;52.194;9.894;2022-09-09T07:33:22;99803.97;;;16.84;95.78
13690;BME280;6917;52.194;9.894;2022-09-09T07:35:47;99808.88;;;16.94;95.49
13690;BME280;6917;52.194;9.894;2022-09-09T07:38:13;99810.19;;;17.04;96.15
13690;BME280;6917;52.194;9.894;2022-09-09T07:40:38;99812.94;;;17.04;94.74
13690;BME280;6917;52.194;9.894;2022-09-09T07:43:04;99813.03;;;17.07;93.11
13690;BME280;6917;52.194;9.894;2022-09-09T07:45:30;99815.84;;;17.11;94.26
13690;BME280;6917;52.194;9.894;2022-09-09T07:47:58;99808.78;;;17.13;94.52
13690;BME280;6917;52.194;9.894;2022-09-09T07:50:23;99806.84;;;17.17;93.82
13690;BME280;6917;52.194;9.894;2022-09-09T07:52:52;99814.84;;;17.22;92.59
13690;BME280;6917;52.194;9.894;2022-09-09T07:55:19;99818.13;;;17.32;92.23
13690;BME280;6917;52.194;9.894;2022-09-09T07:57:44;99819.44;;;17.41;93.15
13690;BME280;6917;52.194;9.894;2022-09-09T08:00:10;99820.78;;;17.51;92.95
13690;BME280;6917;52.194;9.894;2022-09-09T08:02:36;99828.69;;;17.52;91.64
13690;BME280;6917;52.194;9.894;2022-09-09T08:05:01;99822.38;;;17.52;91.99
13690;BME280;6917;52.194;9.894;2022-09-09T08:07:27;99821.47;;;17.44;91.72
13690;BME280;6917;52.194;9.894;2022-09-09T08:09:53;99819.88;;;17.43;92.00
13690;BME280;6917;52.194;9.894;2022-09-09T08:12:21;99830.06;;;17.39;90.64
13690;BME280;6917;52.194;9.894;2022-09-09T08:14:46;99834.59;;;17.51;91.62
13690;BME280;6917;52.194;9.894;2022-09-09T08:17:11;99830.28;;;17.53;89.73
13690;BME280;6917;52.194;9.894;2022-09-09T08:19:36;99825.97;;;17.56;90.25
13690;BME280;6917;52.194;9.894;2022-09-09T08:22:02;99829.59;;;17.64;89.86
13690;BME280;6917;52.194;9.894;2022-09-09T08:24:28;99829.03;;;17.77;90.02
13690;BME280;6917;52.194;9.894;2022-09-09T08:26:54;99830.34;;;17.87;88.79
13690;BME280;6917;52.194;9.894;2022-09-09T08:29:21;99827.63;;;17.91;89.02
13690;BME280;6917;52.194;9.894;2022-09-09T08:31:51;99837.19;;;17.97;89.21
13690;BME280;6917;52.194;9.894;2022-09-09T08:34:19;99829.75;;;18.01;89.48
13690;BME280;6917;52.194;9.894;2022-09-09T08:36:46;99837.25;;;18.00;86.52
13690;BME280;6917;52.194;9.894;2022-09-09T08:39:18;99833.34;;;18.05;87.83
13690;BME280;6917;52.194;9.894;2022-09-09T08:50:21;99836.00;;;18.65;84.01
13690;BME280;6917;52.194;9.894;2022-09-09T08:52:57;99836.56;;;18.81;84.67
13690;BME280;6917;52.194;9.894;2022-09-09T08:55:48;99842.25;;;18.99;83.38
13690;BME280;6917;52.194;9.894;2022-09-09T08:58:20;99838.75;;;19.09;81.42
13690;BME280;6917;52.194;9.894;2022-09-09T09:11:37;99842.91;;;19.33;82.06
13690;BME280;6917;52.194;9.894;2022-09-09T09:14:24;99853.59;;;19.35;80.07
13690;BME280;6917;52.194;9.894;2022-09-09T09:16:59;99847.34;;;19.45;80.19
13690;BME280;6917;52.194;9.894;2022-09-09T09:19:26;99856.94;;;19.58;81.01
13690;BME280;6917;52.194;9.894;2022-09-09T09:22:04;99845.38;;;19.52;78.19
13690;BME280;6917;52.194;9.894;2022-09-09T09:24:47;99847.13;;;19.68;78.07
13690;BME280;6917;52.194;9.894;2022-09-09T09:27:30;99850.41;;;19.91;79.23
13690;BME280;6917;52.194;9.894;2022-09-09T09:29:58;99846.09;;;19.97;78.38
13690;BME280;6917;52.194;9.894;2022-09-09T09:32:26;99845.56;;;19.74;75.58
13690;BME280;6917;52.194;9.894;2022-09-09T09:34:55;99838.84;;;19.78;77.41
13690;BME280;6917;52.194;9.894;2022-09-09T09:37:32;99847.53;;;19.70;77.78
13690;BME280;6917;52.194;9.894;2022-09-09T09:40:20;99846.34;;;19.71;77.10
13690;BME280;6917;52.194;9.894;2022-09-09T09:42:52;99843.50;;;19.60;76.39
13690;BME280;6917;52.194;9.894;2022-09-09T09:45:42;99844.34;;;19.68;77.68
13690;BME280;6917;52.194;9.894;2022-09-09T09:48:11;99826.56;;;19.79;77.63
13690;BME280;6917;52.194;9.894;2022-09-09T09:50:50;99826.25;;;19.95;78.03
13690;BME280;6917;52.194;9.894;2022-09-09T09:53:30;99833.06;;;20.19;76.64
13690;BME280;6917;52.194;9.894;2022-09-09T09:56:06;99833.50;;;20.28;75.53
13690;BME280;6917;52.194;9.894;2022-09-09T09:58:46;99835.38;;;19.99;74.36
13690;BME280;6917;52.194;9.894;2022-09-09T10:01:27;99826.50;;;19.65;75.07
13690;BME280;6917;52.194;9.894;2022-09-09T10:03:58;99822.06;;;19.53;75.50
13690;BME280;6917;52.194;9.894;2022-09-09T10:06:37;99818.44;;;19.42;75.43
13690;BME280;6917;52.194;9.894;2022-09-09T10:09:04;99819.16;;;19.32;77.17
13690;BME280;6917;52.194;9.894;2022-09-09T10:11:57;99819.56;;;19.34;76.64
13690;BME280;6917;52.194;9.894;2022-09-09T10:19:44;99816.03;;;19.41;77.55
13690;BME280;6917;52.194;9.894;2022-09-09T10:22:26;99816.47;;;19.46;76.03
13690;BME280;6917;52.194;9.894;2022-09-09T10:24:59;99817.38;;;19.57;76.38
13690;BME280;6917;52.194;9.894;2022-09-09T10:30:18;99816.84;;;20.21;73.46
13690;BME280;6917;52.194;9.894;2022-09-09T10:36:04;99819.28;;;20.40;68.19
13690;BME280;6917;52.194;9.894;2022-09-09T10:38:40;99815.69;;;20.29;69.30
13690;BME280;6917;52.194;9.894;2022-09-09T10:53:22;99810.63;;;20.88;65.48
13690;BME280;6917;52.194;9.894;2022-09-09T10:55:44;99814.19;;;20.71;65.71
13690;BME280;6917;52.194;9.894;2022-09-09T10:58:19;99809.03;;;20.62;66.63
13690;BME280;6917;52.194;9.894;2022-09-09T11:01:01;99815.28;;;20.38;67.10
13690;BME280;6917;52.194;9.894;2022-09-09T11:03:29;99816.88;;;20.32;68.72
13690;BME280;6917;52.194;9.894;2022-09-09T11:06:06;99814.44;;;20.19;69.33
13690;BME280;6917;52.194;9.894;2022-09-09T11:08:34;99808.06;;;20.01;69.83
13690;BME280;6917;52.194;9.894;2022-09-09T11:14:02;99811.56;;;19.84;70.67
13690;BME280;6917;52.194;9.894;2022-09-09T11:16:41;99824.13;;;19.67;70.91
13690;BME280;6917;52.194;9.894;2022-09-09T11:19:26;99824.50;;;19.58;71.82
13690;BME280;6917;52.194;9.894;2022-09-09T11:21:53;99818.94;;;19.58;72.79
13690;BME280;6917;52.194;9.894;2022-09-09T11:24:37;99830.84;;;19.63;72.32
13690;BME280;6917;52.194;9.894;2022-09-09T11:27:17;99819.75;;;19.63;72.73
13690;BME280;6917;52.194;9.894;2022-09-09T11:32:39;99823.84;;;19.83;73.18
13690;BME280;6917;52.194;9.894;2022-09-09T11:40:28;99827.81;;;19.27;74.30
13690;BME280;6917;52.194;9.894;2022-09-09T11:45:34;99837.34;;;19.33;76.90
13690;BME280;6917;52.194;9.894;2022-09-09T11:48:02;99842.22;;;18.95;79.02
13690;BME280;6917;52.194;9.894;2022-09-09T11:50:31;99835.13;;;18.61;80.33
13690;BME280;6917;52.194;9.894;2022-09-09T11:53:17;99827.09;;;18.49;82.36
13690;BME280;6917;52.194;9.894;2022-09-09T11:55:46;99828.22;;;18.40;83.04
13690;BME280;6917;52.194;9.894;2022-09-09T12:00:41;99832.44;;;18.27;84.46
13690;BME280;6917;52.194;9.894;2022-09-09T12:03:47;99827.50;;;18.10;84.65
13690;BME280;6917;52.194;9.894;2022-09-09T12:06:24;99836.19;;;18.12;86.06
13690;BME280;6917;52.194;9.894;2022-09-09T12:08:55;99832.56;;;18.08;86.64
13690;BME280;6917;52.194;9.894;2022-09-09T12:11:27;99833.03;;;18.10;87.20
13690;BME280;6917;52.194;9.894;2022-09-09T12:13:55;99830.97;;;18.07;84.37
13690;BME280;6917;52.194;9.894;2022-09-09T12:16:32;99818.34;;;18.06;83.89
13690;BME280;6917;52.194;9.894;2022-09-09T12:19:05;99814.47;;;18.10;82.92
13690;BME280;6917;52.194;9.894;2022-09-09T12:21:34;99810.47;;;18.08;84.45
13690;BME280;6917;52.194;9.894;2022-09-09T12:24:09;99817.47;;;17.98;85.86
13690;BME280;6917;52.194;9.894;2022-09-09T12:26:43;99808.69;;;17.93;87.76
13690;BME280;6917;52.194;9.894;2022-09-09T12:29:21;99804.31;;;17.88;87.91
13690;BME280;6917;52.194;9.894;2022-09-09T12:34:34;99804.91;;;18.04;87.44
13690;BME280;6917;52.194;9.894;2022-09-09T12:37:15;99808.94;;;18.10;86.73
13690;BME280;6917;52.194;9.894;2022-09-09T12:39:54;99804.94;;;18.08;85.86
13690;BME280;6917;52.194;9.894;2022-09-09T12:42:22;99806.97;;;18.11;86.83
13690;BME280;6917;52.194;9.894;2022-09-09T12:47:22;99799.06;;;18.09;86.46
13690;BME280;6917;52.194;9.894;2022-09-09T12:49:49;99805.44;;;18.17;86.90
13690;BME280;6917;52.194;9.894;2022-09-09T12:52:26;99817.69;;;18.16;88.21
13690;BME280;6917;52.194;9.894;2022-09-09T12:54:52;99822.38;;;18.12;84.40
13690;BME280;6917;52.194;9.894;2022-09-09T12:57:19;99828.72;;;18.16;86.53
13690;BME280;6917;52.194;9.894;2022-09-09T12:59:46;99821.66;;;18.19;88.18
13690;BME280;6917;52.194;9.894;2022-09-09T13:02:25;99833.47;;;18.16;87.55
13690;BME280;6917;52.194;9.894;2022-09-09T13:04:51;99826.88;;;18.27;87.03
13690;BME280;6917;52.194;9.894;2022-09-09T13:07:18;99823.47;;;18.37;86.89
13690;BME280;6917;52.194;9.894;2022-09-09T13:09:45;99822.31;;;18.42;83.60
13690;BME280;6917;52.194;9.894;2022-09-09T13:12:21;99821.97;;;18.51;84.46
13690;BME280;6917;52.194;9.894;2022-09-09T13:14:55;99818.41;;;18.47;81.93
13690;BME280;6917;52.194;9.894;2022-09-09T13:17:24;99814.53;;;18.55;81.88
13690;BME280;6917;52.194;9.894;2022-09-09T13:19:50;99819.31;;;18.61;80.39
13690;BME280;6917;52.194;9.894;2022-09-09T13:22:31;99810.34;;;18.68;79.08
13690;BME280;6917;52.194;9.894;2022-09-09T13:25:25;99815.53;;;18.77;80.35
13690;BME280;6917;52.194;9.894;2022-09-09T13:30:33;99796.81;;;18.63;82.89
13690;BME280;6917;52.194;9.894;2022-09-09T13:35:55;99782.13;;;18.55;86.54
13690;BME280;6917;52.194;9.894;2022-09-09T13:38:21;99774.31;;;18.64;85.14
13690;BME280;6917;52.194;9.894;2022-09-09T13:40:57;99774.56;;;18.93;84.59
13690;BME280;6917;52.194;9.894;2022-09-09T13:43:25;99780.28;;;19.18;83.84
13690;BME280;6917;52.194;9.894;2022-09-09T13:45:56;99772.88;;;19.36;81.56
13690;BME280;6917;52.194;9.894;2022-09-09T13:48:23;99770.56;;;19.52;79.15
13690;BME280;6917;52.194;9.894;2022-09-09T13:51:03;99773.50;;;19.81;77.13
13690;BME280;6917;52.194;9.894;2022-09-09T13:53:30;99784.69;;;20.09;76.28
13690;BME280;6917;52.194;9.894;2022-09-09T13:55:56;99783.16;;;20.23;76.13
13690;BME280;6917;52.194;9.894;2022-09-09T13:58:22;99782.69;;;19.99;75.41
13690;BME280;6917;52.194;9.894;2022-09-09T14:00:48;99777.03;;;19.71;76.01
13690;BME280;6917;52.194;9.894;2022-09-09T14:03:15;99777.84;;;19.78;77.80
13690;BME280;6917;52.194;9.894;2022-09-09T14:05:40;99772.34;;;19.85;78.49
13690;BME280;6917;52.194;9.894;2022-09-09T14:08:07;99765.56;;;19.72;78.64
13690;BME280;6917;52.194;9.894;2022-09-09T14:10:33;99763.53;;;19.66;79.07
13690;BME280;6917;52.194;9.894;2022-09-09T14:13:02;99770.78;;;19.88;79.46
13690;BME280;6917;52.194;9.894;2022-09-09T14:15:27;99758.44;;;19.68;78.06
13690;BME280;6917;52.194;9.894;2022-09-09T14:17:54;99755.25;;;19.69;79.16
13690;BME280;6917;52.194;9.894;2022-09-09T14:20:19;99750.06;;;19.64;79.11
13690;BME280;6917;52.194;9.894;2022-09-09T14:22:45;99746.00;;;19.44;79.57
13690;BME280;6917;52.194;9.894;2022-09-09T14:25:11;99745.56;;;19.35;80.45
13690;BME280;6917;52.194;9.894;2022-09-09T14:27:38;99743.25;;;19.51;80.78
13690;BME280;6917;52.194;9.894;2022-09-09T14:30:05;99740.22;;;19.74;82.41
13690;BME280;6917;52.194;9.894;2022-09-09T14:32:30;99747.00;;;19.87;81.58
13690;BME280;6917;52.194;9.894;2022-09-09T14:34:56;99739.09;;;19.85;81.59
13690;BME280;6917;52.194;9.894;2022-09-09T14:37:21;99750.63;;;20.05;81.12
13690;BME280;6917;52.194;9.894;2022-09-09T14:39:46;99747.84;;;20.09;80.48
13690;BME280;6917;52.194;9.894;2022-09-09T14:42:13;99751.13;;;20.50;80.97
13690;BME280;6917;52.194;9.894;2022-09-09T14:44:39;99741.59;;;20.65;77.66
13690;BME280;6917;52.194;9.894;2022-09-09T14:47:08;99742.41;;;20.98;71.02
13690;BME280;6917;52.194;9.894;2022-09-09T14:49:34;99747.91;;;21.33;68.90
13690;BME280;6917;52.194;9.894;2022-09-09T14:51:59;99748.28;;;21.39;67.02
13690;BME280;6917;52.194;9.894;2022-09-09T14:54:25;99747.88;;;21.48;64.38
13690;BME280;6917;52.194;9.894;2022-09-09T14:56:50;99747.78;;;21.65;63.18
13690;BME280;6917;52.194;9.894;2022-09-09T14:59:16;99741.47;;;21.58;61.17
13690;BME280;6917;52.194;9.894;2022-09-09T15:01:41;99749.13;;;21.29;59.78
13690;BME280;6917;52.194;9.894;2022-09-09T15:04:07;99753.88;;;21.03;59.53
13690;BME280;6917;52.194;9.894;2022-09-09T15:06:34;99749.91;;;20.97;60.11
13690;BME280;6917;52.194;9.894;2022-09-09T15:09:03;99755.09;;;20.88;60.92
13690;BME280;6917;52.194;9.894;2022-09-09T15:11:31;99752.69;;;20.94;60.17
13690;BME280;6917;52.194;9.894;2022-09-09T15:13:58;99746.34;;;21.15;60.38
13690;BME280;6917;52.194;9.894;2022-09-09T15:16:27;99754.63;;;21.47;59.77
13690;BME280;6917;52.194;9.894;2022-09-09T15:18:55;99747.81;;;21.62;58.31